Liberty — WDF4885 — position and weather

sailwx.info

Track history (hours):
 
Tides and Currents Weather Stations Pressure Air Temp Water Temp Dewpoint Dewpoint Depression Visibility Wind Speed Wind Dir Waves Ship Positions

Liberty

Owner: Canal Barge Company, Inc., Belle Chasse, LA. More information available from US FCC via Universal Licensing System and Coast Guard Vessel Documentation Center.

Last reported at 2017-Sep-22 02:00 UTC. Time now 2017-Sep-26 18:33 UTC.
Position N 29°37' W 095°01'.

Length 25 m; draft 3 m.

MMSI: 367456820.

Date/timePositionNaut miles runAvg speedWind from/ knotsBaromVisibWave heightAir tempDewpointWater temp
2017-Sep-22 02:00N 29°37' W 095°01'0 0.0
2017-Sep-22 01:30N 29°37' W 095°01'0 0.0
2017-Sep-22 01:23N 29°37' W 095°01'0 0.0
2017-Sep-22 00:38N 29°37' W 095°01'0 0.0
2017-Sep-22 00:23N 29°37' W 095°01'0 0.0
2017-Sep-21 23:59N 29°37' W 095°01'0 0.0
2017-Sep-21 23:23N 29°37' W 095°01'0 0.0
2017-Sep-21 22:56N 29°37' W 095°01'0 0.0
2017-Sep-21 22:29N 29°37' W 095°01'0 0.0
2017-Sep-21 21:59N 29°37' W 095°01'0 0.0
2017-Sep-21 21:29N 29°37' W 095°01'0 0.0
2017-Sep-21 20:59N 29°37' W 095°01'0 0.0
2017-Sep-21 20:29N 29°37' W 095°01'0 0.0
2017-Sep-21 19:59N 29°37' W 095°01'0 0.0
2017-Sep-21 19:29N 29°37' W 095°01'0 0.0
2017-Sep-21 18:59N 29°37' W 095°01'0 0.1
2017-Sep-21 18:29N 29°37' W 095°01'1 1.2
2017-Sep-21 18:00N 29°37' W 095°01'3 5.2
2017-Sep-21 17:30N 29°37' W 094°58'2 3.1
2017-Sep-21 16:59N 29°38' W 094°58'3 5.2
2017-Sep-21 16:28N 29°41' W 094°59'3 4.8
2017-Sep-21 15:55N 29°42' W 095°02'1 0.0
2017-Sep-20 06:46N 29°42' W 095°03'0 0.0
2017-Sep-20 06:19N 29°42' W 095°03'0 0.0
2017-Sep-19 15:49N 29°42' W 095°03'0 0.0
2017-Sep-19 15:22N 29°42' W 095°03'0 0.0
2017-Sep-18 14:57N 29°42' W 095°03'0 0.0
2017-Sep-18 14:18N 29°42' W 095°03'0 0.0
2017-Sep-18 12:21N 29°42' W 095°03'0 0.0
2017-Sep-18 05:48N 29°42' W 095°03'0 0.0
2017-Sep-17 21:48N 29°42' W 095°03'0 0.0
2017-Sep-17 19:48N 29°42' W 095°03'0 0.0
2017-Sep-17 15:00N 29°42' W 095°03'0 0.0
2017-Sep-17 13:12N 29°42' W 095°03'0 0.0
2017-Sep-17 09:00N 29°42' W 095°03'0 0.0
2017-Sep-17 06:54N 29°42' W 095°03'0 0.0
2017-Sep-17 06:12N 29°42' W 095°03'0 0.0
2017-Sep-17 05:54N 29°42' W 095°03'0 0.0
2017-Sep-17 05:30N 29°42' W 095°03'0 0.0
2017-Sep-16 18:21N 29°42' W 095°03'1 3.6
2017-Sep-16 18:00N 29°42' W 095°01'2 4.0
2017-Sep-16 17:30N 29°41' W 094°59'2 4.1
2017-Sep-16 17:00N 29°39' W 094°58'3 5.2
2017-Sep-16 16:30N 29°37' W 094°57'3 5.6
2017-Sep-16 16:00N 29°37' W 095°01'1 1.2
2017-Sep-16 15:22N 29°37' W 095°02'0 0.1
2017-Sep-16 15:00N 29°37' W 095°02'0 0.0
2017-Sep-16 14:30N 29°37' W 095°02'0 0.0
2017-Sep-16 14:00N 29°37' W 095°02'0 0.0
2017-Sep-16 13:27N 29°37' W 095°02'0 0.0
2017-Sep-16 12:57N 29°37' W 095°02'0 0.0
2017-Sep-16 12:27N 29°37' W 095°02'0 0.0
2017-Sep-16 11:57N 29°37' W 095°02'0 0.0
2017-Sep-16 11:21N 29°37' W 095°02'0 0.0
2017-Sep-16 11:00N 29°37' W 095°02'0 0.0
2017-Sep-16 10:24N 29°37' W 095°02'0 0.0
2017-Sep-16 09:54N 29°37' W 095°02'0 0.0
2017-Sep-16 09:30N 29°37' W 095°02'0 0.0
2017-Sep-16 09:00N 29°37' W 095°02'0 0.0
2017-Sep-16 08:12N 29°37' W 095°02'0 0.0
2017-Sep-16 08:00N 29°37' W 095°02'0 0.0
2017-Sep-16 07:27N 29°37' W 095°02'0 0.0
2017-Sep-16 07:00N 29°37' W 095°02'0 0.0
2017-Sep-16 06:30N 29°37' W 095°02'0 0.0
2017-Sep-16 06:00N 29°37' W 095°02'0 0.0
2017-Sep-16 05:24N 29°37' W 095°02'0 0.0
2017-Sep-16 04:51N 29°37' W 095°02'0 0.0
2017-Sep-16 04:18N 29°37' W 095°02'0 0.0
2017-Sep-16 03:48N 29°37' W 095°02'0 0.0
2017-Sep-16 03:21N 29°37' W 095°02'0 0.0
2017-Sep-16 02:39N 29°37' W 095°02'0 0.0
2017-Sep-16 02:27N 29°37' W 095°02'0 0.0
2017-Sep-16 01:57N 29°37' W 095°02'0 0.0
2017-Sep-16 01:24N 29°37' W 095°02'0 0.0
2017-Sep-16 00:48N 29°37' W 095°02'0 0.0
2017-Sep-16 00:30N 29°37' W 095°02'0 0.0
2017-Sep-15 23:57N 29°37' W 095°02'0 0.0
2017-Sep-15 23:30N 29°37' W 095°02'0 0.0
2017-Sep-15 23:00N 29°37' W 095°02'0 0.0
2017-Sep-15 22:30N 29°37' W 095°02'0 0.0
2017-Sep-15 21:57N 29°37' W 095°02'0 0.0
2017-Sep-15 21:30N 29°37' W 095°02'0 0.0
2017-Sep-15 20:12N 29°37' W 095°02'0 0.0
2017-Sep-15 20:00N 29°37' W 095°02'0 0.0
2017-Sep-15 19:30N 29°37' W 095°02'0 0.0
2017-Sep-15 18:57N 29°37' W 095°02'0 0.1
2017-Sep-15 18:29N 29°37' W 095°02'0 0.0
2017-Sep-15 17:59N 29°37' W 095°02'0 0.0
2017-Sep-15 17:29N 29°37' W 095°02'0 0.0
2017-Sep-15 16:59N 29°37' W 095°02'0 0.0
2017-Sep-15 16:29N 29°37' W 095°02'0 0.1
2017-Sep-15 15:58N 29°37' W 095°01'0 0.0
2017-Sep-15 15:25N 29°37' W 095°02'0 0.6
2017-Sep-15 15:00N 29°37' W 095°01'2 3.1
2017-Sep-15 14:30N 29°37' W 094°59'2 3.5
2017-Sep-15 14:00N 29°37' W 094°58'2 3.2
2017-Sep-15 13:31N 29°39' W 094°58'2 4.0
2017-Sep-15 13:00N 29°41' W 094°59'2 3.9
2017-Sep-15 12:27N 29°42' W 095°01'1 2.9
2017-Sep-15 11:59N 29°42' W 095°02'1 0.5
2017-Sep-15 10:52N 29°42' W 095°03'0 0.0
2017-Sep-15 10:19N 29°42' W 095°03'0 0.0
2017-Sep-15 09:49N 29°42' W 095°03'0 0.0
2017-Sep-15 08:43N 29°42' W 095°03'0 0.0
2017-Sep-15 08:19N 29°42' W 095°03'0 0.0
2017-Sep-15 07:19N 29°42' W 095°03'0 0.0
2017-Sep-15 05:55N 29°42' W 095°03'0 0.0
2017-Sep-15 04:19N 29°42' W 095°03'0 0.0
2017-Sep-15 03:58N 29°42' W 095°03'0 0.0
2017-Sep-15 02:31N 29°42' W 095°03'0 0.0
2017-Sep-15 02:19N 29°42' W 095°03'0 0.0
2017-Sep-15 01:49N 29°42' W 095°03'0 0.0
2017-Sep-15 01:25N 29°42' W 095°03'0 0.0
2017-Sep-14 23:37N 29°42' W 095°03'0 0.0
2017-Sep-14 23:16N 29°42' W 095°03'0 0.0
2017-Sep-14 22:55N 29°42' W 095°03'0 0.0
2017-Sep-14 22:04N 29°42' W 095°03'0 0.0
2017-Sep-14 21:52N 29°42' W 095°03'0 0.0
2017-Sep-14 19:34N 29°42' W 095°03'0 0.0
2017-Sep-14 19:28N 29°42' W 095°03'0 0.0
2017-Sep-14 18:46N 29°42' W 095°03'0 0.0
2017-Sep-14 17:13N 29°42' W 095°03'0 0.0
2017-Sep-14 16:46N 29°42' W 095°03'0 0.0
2017-Sep-14 16:22N 29°42' W 095°03'0 0.0
2017-Sep-14 15:43N 29°42' W 095°03'0 0.0
2017-Sep-14 13:22N 29°42' W 095°03'0 0.0
2017-Sep-14 12:58N 29°42' W 095°03'0 0.0
2017-Sep-14 11:55N 29°42' W 095°03'0 0.0
2017-Sep-14 10:46N 29°42' W 095°03'0 0.0
2017-Sep-14 09:28N 29°42' W 095°03'0 0.0
2017-Sep-14 08:55N 29°42' W 095°03'0 0.0
2017-Sep-14 08:25N 29°42' W 095°03'0 0.0
2017-Sep-14 05:25N 29°42' W 095°03'0 0.0
2017-Sep-14 04:43N 29°42' W 095°03'0 0.0
2017-Sep-14 04:31N 29°42' W 095°03'0 0.0
2017-Sep-14 00:42N 29°42' W 095°03'0 0.0
2017-Sep-14 00:27N 29°42' W 095°03'0 0.0
2017-Sep-13 23:18N 29°42' W 095°03'0 0.1
2017-Sep-13 23:00N 29°42' W 095°03'0 0.0
2017-Sep-13 18:24N 29°42' W 095°03'0 0.0
2017-Sep-13 13:06N 29°42' W 095°03'1 3.7
2017-Sep-13 12:45N 29°42' W 095°01'1 1.3
2017-Sep-13 11:44N 29°42' W 095°03'0 0.0
2017-Sep-13 10:23N 29°42' W 095°03'0 0.0
2017-Sep-13 09:02N 29°42' W 095°03'0 0.0
2017-Sep-13 08:53N 29°42' W 095°03'0 0.2
2017-Sep-13 08:02N 29°43' W 095°03'0 0.3
2017-Sep-13 07:53N 29°42' W 095°03'1 2.3
2017-Sep-13 07:17N 29°42' W 095°01'1 3.3
2017-Sep-13 07:00N 29°42' W 095°00'2 3.6
2017-Sep-13 06:30N 29°41' W 094°59'3 6.0
2017-Sep-13 06:00N 29°38' W 094°58'3 5.8
2017-Sep-13 05:30N 29°35' W 094°56'3 5.9
2017-Sep-13 05:00N 29°33' W 094°54'85 4.0
2017-Sep-12 07:31N 30°04' W 093°22'0 4.1
2017-Sep-12 07:29N 30°04' W 093°22'3 3.3
2017-Sep-12 06:35N 30°05' W 093°20'0 4.1
2017-Sep-12 06:29N 30°06' W 093°20'2 4.4
2017-Sep-12 06:00N 30°08' W 093°20'0 0.3
2017-Sep-12 05:29N 30°08' W 093°20'0 0.7
2017-Sep-12 04:59N 30°08' W 093°19'0 0.0
2017-Sep-12 04:29N 30°08' W 093°19'0 0.0
2017-Sep-12 03:59N 30°08' W 093°19'0 0.0
2017-Sep-12 03:23N 30°08' W 093°19'0 0.0
2017-Sep-12 02:59N 30°08' W 093°19'0 0.0
2017-Sep-12 02:29N 30°08' W 093°19'  
Track history (hours):
 
Tides and Currents Weather Stations Pressure Air Temp Water Temp Dewpoint Dewpoint Depression Visibility Wind Speed Wind Dir Waves Ship Positions

Liberty

Owner: Canal Barge Company, Inc., Belle Chasse, LA. More information available from US FCC via Universal Licensing System and Coast Guard Vessel Documentation Center.

Last reported at 2017-Sep-22 02:00 UTC. Time now 2017-Sep-26 18:33 UTC.
Position N 29°37' W 095°01'.

Length 25 m; draft 3 m.

MMSI: 367456820.

Date/timePositionNaut miles runAvg speedWind from/ knotsBaromVisibWave heightAir tempDewpointWater temp
2017-Sep-22 02:00N 29°37' W 095°01'0 0.0
2017-Sep-22 01:30N 29°37' W 095°01'0 0.0
2017-Sep-22 01:23N 29°37' W 095°01'0 0.0
2017-Sep-22 00:38N 29°37' W 095°01'0 0.0
2017-Sep-22 00:23N 29°37' W 095°01'0 0.0
2017-Sep-21 23:59N 29°37' W 095°01'0 0.0
2017-Sep-21 23:23N 29°37' W 095°01'0 0.0
2017-Sep-21 22:56N 29°37' W 095°01'0 0.0
2017-Sep-21 22:29N 29°37' W 095°01'0 0.0
2017-Sep-21 21:59N 29°37' W 095°01'0 0.0
2017-Sep-21 21:29N 29°37' W 095°01'0 0.0
2017-Sep-21 20:59N 29°37' W 095°01'0 0.0
2017-Sep-21 20:29N 29°37' W 095°01'0 0.0
2017-Sep-21 19:59N 29°37' W 095°01'0 0.0
2017-Sep-21 19:29N 29°37' W 095°01'0 0.0
2017-Sep-21 18:59N 29°37' W 095°01'0 0.1
2017-Sep-21 18:29N 29°37' W 095°01'1 1.2
2017-Sep-21 18:00N 29°37' W 095°01'3 5.2
2017-Sep-21 17:30N 29°37' W 094°58'2 3.1
2017-Sep-21 16:59N 29°38' W 094°58'3 5.2
2017-Sep-21 16:28N 29°41' W 094°59'3 4.8
2017-Sep-21 15:55N 29°42' W 095°02'1 0.0
2017-Sep-20 06:46N 29°42' W 095°03'0 0.0
2017-Sep-20 06:19N 29°42' W 095°03'0 0.0
2017-Sep-19 15:49N 29°42' W 095°03'0 0.0
2017-Sep-19 15:22N 29°42' W 095°03'0 0.0
2017-Sep-18 14:57N 29°42' W 095°03'0 0.0
2017-Sep-18 14:18N 29°42' W 095°03'0 0.0
2017-Sep-18 12:21N 29°42' W 095°03'0 0.0
2017-Sep-18 05:48N 29°42' W 095°03'0 0.0
2017-Sep-17 21:48N 29°42' W 095°03'0 0.0
2017-Sep-17 19:48N 29°42' W 095°03'0 0.0
2017-Sep-17 15:00N 29°42' W 095°03'0 0.0
2017-Sep-17 13:12N 29°42' W 095°03'0 0.0
2017-Sep-17 09:00N 29°42' W 095°03'0 0.0
2017-Sep-17 06:54N 29°42' W 095°03'0 0.0
2017-Sep-17 06:12N 29°42' W 095°03'0 0.0
2017-Sep-17 05:54N 29°42' W 095°03'0 0.0
2017-Sep-17 05:30N 29°42' W 095°03'0 0.0
2017-Sep-16 18:21N 29°42' W 095°03'1 3.6
2017-Sep-16 18:00N 29°42' W 095°01'2 4.0
2017-Sep-16 17:30N 29°41' W 094°59'2 4.1
2017-Sep-16 17:00N 29°39' W 094°58'3 5.2
2017-Sep-16 16:30N 29°37' W 094°57'3 5.6
2017-Sep-16 16:00N 29°37' W 095°01'1 1.2
2017-Sep-16 15:22N 29°37' W 095°02'0 0.1
2017-Sep-16 15:00N 29°37' W 095°02'0 0.0
2017-Sep-16 14:30N 29°37' W 095°02'0 0.0
2017-Sep-16 14:00N 29°37' W 095°02'0 0.0
2017-Sep-16 13:27N 29°37' W 095°02'0 0.0
2017-Sep-16 12:57N 29°37' W 095°02'0 0.0
2017-Sep-16 12:27N 29°37' W 095°02'0 0.0
2017-Sep-16 11:57N 29°37' W 095°02'0 0.0
2017-Sep-16 11:21N 29°37' W 095°02'0 0.0
2017-Sep-16 11:00N 29°37' W 095°02'0 0.0
2017-Sep-16 10:24N 29°37' W 095°02'0 0.0
2017-Sep-16 09:54N 29°37' W 095°02'0 0.0
2017-Sep-16 09:30N 29°37' W 095°02'0 0.0
2017-Sep-16 09:00N 29°37' W 095°02'0 0.0
2017-Sep-16 08:12N 29°37' W 095°02'0 0.0
2017-Sep-16 08:00N 29°37' W 095°02'0 0.0
2017-Sep-16 07:27N 29°37' W 095°02'0 0.0
2017-Sep-16 07:00N 29°37' W 095°02'0 0.0
2017-Sep-16 06:30N 29°37' W 095°02'0 0.0
2017-Sep-16 06:00N 29°37' W 095°02'0 0.0
2017-Sep-16 05:24N 29°37' W 095°02'0 0.0
2017-Sep-16 04:51N 29°37' W 095°02'0 0.0
2017-Sep-16 04:18N 29°37' W 095°02'0 0.0
2017-Sep-16 03:48N 29°37' W 095°02'0 0.0
2017-Sep-16 03:21N 29°37' W 095°02'0 0.0
2017-Sep-16 02:39N 29°37' W 095°02'0 0.0
2017-Sep-16 02:27N 29°37' W 095°02'0 0.0
2017-Sep-16 01:57N 29°37' W 095°02'0 0.0
2017-Sep-16 01:24N 29°37' W 095°02'0 0.0
2017-Sep-16 00:48N 29°37' W 095°02'0 0.0
2017-Sep-16 00:30N 29°37' W 095°02'0 0.0
2017-Sep-15 23:57N 29°37' W 095°02'0 0.0
2017-Sep-15 23:30N 29°37' W 095°02'0 0.0
2017-Sep-15 23:00N 29°37' W 095°02'0 0.0
2017-Sep-15 22:30N 29°37' W 095°02'0 0.0
2017-Sep-15 21:57N 29°37' W 095°02'0 0.0
2017-Sep-15 21:30N 29°37' W 095°02'0 0.0
2017-Sep-15 20:12N 29°37' W 095°02'0 0.0
2017-Sep-15 20:00N 29°37' W 095°02'0 0.0
2017-Sep-15 19:30N 29°37' W 095°02'0 0.0
2017-Sep-15 18:57N 29°37' W 095°02'0 0.1
2017-Sep-15 18:29N 29°37' W 095°02'0 0.0
2017-Sep-15 17:59N 29°37' W 095°02'0 0.0
2017-Sep-15 17:29N 29°37' W 095°02'0 0.0
2017-Sep-15 16:59N 29°37' W 095°02'0 0.0
2017-Sep-15 16:29N 29°37' W 095°02'0 0.1
2017-Sep-15 15:58N 29°37' W 095°01'0 0.0
2017-Sep-15 15:25N 29°37' W 095°02'0 0.6
2017-Sep-15 15:00N 29°37' W 095°01'2 3.1
2017-Sep-15 14:30N 29°37' W 094°59'2 3.5
2017-Sep-15 14:00N 29°37' W 094°58'2 3.2
2017-Sep-15 13:31N 29°39' W 094°58'2 4.0
2017-Sep-15 13:00N 29°41' W 094°59'2 3.9
2017-Sep-15 12:27N 29°42' W 095°01'1 2.9
2017-Sep-15 11:59N 29°42' W 095°02'1 0.5
2017-Sep-15 10:52N 29°42' W 095°03'0 0.0
2017-Sep-15 10:19N 29°42' W 095°03'0 0.0
2017-Sep-15 09:49N 29°42' W 095°03'0 0.0
2017-Sep-15 08:43N 29°42' W 095°03'0 0.0
2017-Sep-15 08:19N 29°42' W 095°03'0 0.0
2017-Sep-15 07:19N 29°42' W 095°03'0 0.0
2017-Sep-15 05:55N 29°42' W 095°03'0 0.0
2017-Sep-15 04:19N 29°42' W 095°03'0 0.0
2017-Sep-15 03:58N 29°42' W 095°03'0 0.0
2017-Sep-15 02:31N 29°42' W 095°03'0 0.0
2017-Sep-15 02:19N 29°42' W 095°03'0 0.0
2017-Sep-15 01:49N 29°42' W 095°03'0 0.0
2017-Sep-15 01:25N 29°42' W 095°03'0 0.0
2017-Sep-14 23:37N 29°42' W 095°03'0 0.0
2017-Sep-14 23:16N 29°42' W 095°03'0 0.0
2017-Sep-14 22:55N 29°42' W 095°03'0 0.0
2017-Sep-14 22:04N 29°42' W 095°03'0 0.0
2017-Sep-14 21:52N 29°42' W 095°03'0 0.0
2017-Sep-14 19:34N 29°42' W 095°03'0 0.0
2017-Sep-14 19:28N 29°42' W 095°03'0 0.0
2017-Sep-14 18:46N 29°42' W 095°03'0 0.0
2017-Sep-14 17:13N 29°42' W 095°03'0 0.0
2017-Sep-14 16:46N 29°42' W 095°03'0 0.0
2017-Sep-14 16:22N 29°42' W 095°03'0 0.0
2017-Sep-14 15:43N 29°42' W 095°03'0 0.0
2017-Sep-14 13:22N 29°42' W 095°03'0 0.0
2017-Sep-14 12:58N 29°42' W 095°03'0 0.0
2017-Sep-14 11:55N 29°42' W 095°03'0 0.0
2017-Sep-14 10:46N 29°42' W 095°03'0 0.0
2017-Sep-14 09:28N 29°42' W 095°03'0 0.0
2017-Sep-14 08:55N 29°42' W 095°03'0 0.0
2017-Sep-14 08:25N 29°42' W 095°03'0 0.0
2017-Sep-14 05:25N 29°42' W 095°03'0 0.0
2017-Sep-14 04:43N 29°42' W 095°03'0 0.0
2017-Sep-14 04:31N 29°42' W 095°03'0 0.0
2017-Sep-14 00:42N 29°42' W 095°03'0 0.0
2017-Sep-14 00:27N 29°42' W 095°03'0 0.0
2017-Sep-13 23:18N 29°42' W 095°03'0 0.1
2017-Sep-13 23:00N 29°42' W 095°03'0 0.0
2017-Sep-13 18:24N 29°42' W 095°03'0 0.0
2017-Sep-13 13:06N 29°42' W 095°03'1 3.7
2017-Sep-13 12:45N 29°42' W 095°01'1 1.3
2017-Sep-13 11:44N 29°42' W 095°03'0 0.0
2017-Sep-13 10:23N 29°42' W 095°03'0 0.0
2017-Sep-13 09:02N 29°42' W 095°03'0 0.0
2017-Sep-13 08:53N 29°42' W 095°03'0 0.2
2017-Sep-13 08:02N 29°43' W 095°03'0 0.3
2017-Sep-13 07:53N 29°42' W 095°03'1 2.3
2017-Sep-13 07:17N 29°42' W 095°01'1 3.3
2017-Sep-13 07:00N 29°42' W 095°00'2 3.6
2017-Sep-13 06:30N 29°41' W 094°59'3 6.0
2017-Sep-13 06:00N 29°38' W 094°58'3 5.8
2017-Sep-13 05:30N 29°35' W 094°56'3 5.9
2017-Sep-13 05:00N 29°33' W 094°54'85 4.0
2017-Sep-12 07:31N 30°04' W 093°22'0 4.1
2017-Sep-12 07:29N 30°04' W 093°22'3 3.3
2017-Sep-12 06:35N 30°05' W 093°20'0 4.1
2017-Sep-12 06:29N 30°06' W 093°20'2 4.4
2017-Sep-12 06:00N 30°08' W 093°20'0 0.3
2017-Sep-12 05:29N 30°08' W 093°20'0 0.7
2017-Sep-12 04:59N 30°08' W 093°19'0 0.0
2017-Sep-12 04:29N 30°08' W 093°19'0 0.0
2017-Sep-12 03:59N 30°08' W 093°19'0 0.0
2017-Sep-12 03:23N 30°08' W 093°19'0 0.0
2017-Sep-12 02:59N 30°08' W 093°19'0 0.0
2017-Sep-12 02:29N 30°08' W 093°19'  

Dump ship's entire track history